sensor_id;sensor_type;location;lat;lon;timestamp;P1;durP1;ratioP1;P2;durP2;ratioP2
53062;SDS011;40529;52.172;10.548;2023-05-08T00:02:04;12.93;;;9.07;;
53062;SDS011;40529;52.172;10.548;2023-05-08T00:04:30;11.40;;;9.63;;
53062;SDS011;40529;52.172;10.548;2023-05-08T00:06:56;12.88;;;10.23;;
53062;SDS011;40529;52.172;10.548;2023-05-08T00:09:22;10.25;;;8.95;;
53062;SDS011;40529;52.172;10.548;2023-05-08T00:11:48;10.32;;;8.95;;
53062;SDS011;40529;52.172;10.548;2023-05-08T00:14:14;13.13;;;10.20;;
53062;SDS011;40529;52.172;10.548;2023-05-08T00:16:40;10.77;;;9.13;;
53062;SDS011;40529;52.172;10.548;2023-05-08T00:19:06;11.32;;;9.23;;
53062;SDS011;40529;52.172;10.548;2023-05-08T00:21:32;11.52;;;9.10;;
53062;SDS011;40529;52.172;10.548;2023-05-08T00:23:58;14.30;;;9.57;;
53062;SDS011;40529;52.172;10.548;2023-05-08T00:26:24;12.15;;;9.60;;
53062;SDS011;40529;52.172;10.548;2023-05-08T00:28:50;10.75;;;8.73;;
53062;SDS011;40529;52.172;10.548;2023-05-08T00:31:17;11.35;;;9.32;;
53062;SDS011;40529;52.172;10.548;2023-05-08T00:33:43;10.00;;;8.75;;
53062;SDS011;40529;52.172;10.548;2023-05-08T00:36:09;13.50;;;9.10;;
53062;SDS011;40529;52.172;10.548;2023-05-08T00:38:35;10.18;;;8.32;;
53062;SDS011;40529;52.172;10.548;2023-05-08T00:41:01;11.00;;;9.15;;
53062;SDS011;40529;52.172;10.548;2023-05-08T00:43:28;11.38;;;9.43;;
53062;SDS011;40529;52.172;10.548;2023-05-08T00:45:54;10.90;;;9.02;;
53062;SDS011;40529;52.172;10.548;2023-05-08T00:48:21;12.35;;;9.18;;
53062;SDS011;40529;52.172;10.548;2023-05-08T00:50:48;11.43;;;9.02;;
53062;SDS011;40529;52.172;10.548;2023-05-08T00:53:14;13.38;;;9.20;;
53062;SDS011;40529;52.172;10.548;2023-05-08T00:55:41;10.43;;;8.60;;
53062;SDS011;40529;52.172;10.548;2023-05-08T00:58:08;10.93;;;9.10;;
53062;SDS011;40529;52.172;10.548;2023-05-08T01:00:34;10.88;;;8.75;;
53062;SDS011;40529;52.172;10.548;2023-05-08T01:03:00;14.20;;;9.70;;
53062;SDS011;40529;52.172;10.548;2023-05-08T01:05:27;12.00;;;9.07;;
53062;SDS011;40529;52.172;10.548;2023-05-08T01:07:53;13.63;;;8.98;;
53062;SDS011;40529;52.172;10.548;2023-05-08T01:10:19;10.00;;;8.75;;
53062;SDS011;40529;52.172;10.548;2023-05-08T01:15:53;11.30;;;8.77;;
53062;SDS011;40529;52.172;10.548;2023-05-08T01:18:18;10.93;;;9.48;;
53062;SDS011;40529;52.172;10.548;2023-05-08T01:28:44;15.20;;;11.45;;
53062;SDS011;40529;52.172;10.548;2023-05-08T01:31:16;14.15;;;11.07;;
53062;SDS011;40529;52.172;10.548;2023-05-08T01:33:48;15.93;;;11.95;;
53062;SDS011;40529;52.172;10.548;2023-05-08T01:36:29;16.42;;;12.80;;
53062;SDS011;40529;52.172;10.548;2023-05-08T01:41:30;16.83;;;11.95;;
53062;SDS011;40529;52.172;10.548;2023-05-08T01:44:05;16.17;;;13.07;;
53062;SDS011;40529;52.172;10.548;2023-05-08T01:46:35;16.30;;;12.70;;
53062;SDS011;40529;52.172;10.548;2023-05-08T01:49:08;17.05;;;13.07;;
53062;SDS011;40529;52.172;10.548;2023-05-08T01:51:42;16.95;;;12.45;;
53062;SDS011;40529;52.172;10.548;2023-05-08T01:54:10;16.48;;;12.63;;
53062;SDS011;40529;52.172;10.548;2023-05-08T01:56:36;16.73;;;13.02;;
53062;SDS011;40529;52.172;10.548;2023-05-08T01:59:03;16.13;;;12.57;;
53062;SDS011;40529;52.172;10.548;2023-05-08T02:01:31;15.98;;;12.90;;
53062;SDS011;40529;52.172;10.548;2023-05-08T02:03:57;16.08;;;12.32;;
53062;SDS011;40529;52.172;10.548;2023-05-08T02:06:24;17.58;;;13.18;;
53062;SDS011;40529;52.172;10.548;2023-05-08T02:08:52;16.15;;;12.75;;
53062;SDS011;40529;52.172;10.548;2023-05-08T02:11:18;15.95;;;12.63;;
53062;SDS011;40529;52.172;10.548;2023-05-08T02:13:46;18.10;;;12.35;;
53062;SDS011;40529;52.172;10.548;2023-05-08T02:16:12;15.63;;;12.40;;
53062;SDS011;40529;52.172;10.548;2023-05-08T02:18:43;18.30;;;12.50;;
53062;SDS011;40529;52.172;10.548;2023-05-08T02:21:09;15.25;;;11.82;;
53062;SDS011;40529;52.172;10.548;2023-05-08T02:23:37;16.83;;;11.82;;
53062;SDS011;40529;52.172;10.548;2023-05-08T02:26:03;16.83;;;12.15;;
53062;SDS011;40529;52.172;10.548;2023-05-08T02:28:29;15.48;;;11.40;;
53062;SDS011;40529;52.172;10.548;2023-05-08T02:30:55;14.00;;;11.07;;
53062;SDS011;40529;52.172;10.548;2023-05-08T02:33:22;15.57;;;11.85;;
53062;SDS011;40529;52.172;10.548;2023-05-08T02:35:49;14.05;;;11.05;;
53062;SDS011;40529;52.172;10.548;2023-05-08T02:38:19;15.52;;;11.73;;
53062;SDS011;40529;52.172;10.548;2023-05-08T02:40:47;16.23;;;11.68;;
53062;SDS011;40529;52.172;10.548;2023-05-08T02:43:14;14.13;;;11.65;;
53062;SDS011;40529;52.172;10.548;2023-05-08T02:48:20;15.75;;;11.55;;
53062;SDS011;40529;52.172;10.548;2023-05-08T02:53:36;14.27;;;11.50;;
53062;SDS011;40529;52.172;10.548;2023-05-08T02:56:08;16.33;;;11.43;;
53062;SDS011;40529;52.172;10.548;2023-05-08T02:59:11;15.68;;;11.63;;
53062;SDS011;40529;52.172;10.548;2023-05-08T03:01:32;18.10;;;12.00;;
53062;SDS011;40529;52.172;10.548;2023-05-08T03:04:03;15.93;;;11.70;;
53062;SDS011;40529;52.172;10.548;2023-05-08T03:06:32;14.93;;;11.25;;
53062;SDS011;40529;52.172;10.548;2023-05-08T03:09:00;16.05;;;12.27;;
53062;SDS011;40529;52.172;10.548;2023-05-08T03:11:31;16.35;;;11.93;;
53062;SDS011;40529;52.172;10.548;2023-05-08T03:13:58;14.23;;;11.95;;
53062;SDS011;40529;52.172;10.548;2023-05-08T03:16:25;16.42;;;12.05;;
53062;SDS011;40529;52.172;10.548;2023-05-08T03:18:56;16.90;;;11.75;;
53062;SDS011;40529;52.172;10.548;2023-05-08T03:21:23;17.30;;;12.55;;
53062;SDS011;40529;52.172;10.548;2023-05-08T03:23:52;16.10;;;12.65;;
53062;SDS011;40529;52.172;10.548;2023-05-08T03:26:18;15.80;;;12.30;;
53062;SDS011;40529;52.172;10.548;2023-05-08T03:28:48;16.30;;;12.52;;
53062;SDS011;40529;52.172;10.548;2023-05-08T03:31:16;15.95;;;12.02;;
53062;SDS011;40529;52.172;10.548;2023-05-08T03:33:44;14.30;;;11.63;;
53062;SDS011;40529;52.172;10.548;2023-05-08T03:36:11;19.35;;;12.70;;
53062;SDS011;40529;52.172;10.548;2023-05-08T03:38:37;16.20;;;12.20;;
53062;SDS011;40529;52.172;10.548;2023-05-08T03:41:03;17.60;;;12.25;;
53062;SDS011;40529;52.172;10.548;2023-05-08T03:43:30;15.27;;;11.85;;
53062;SDS011;40529;52.172;10.548;2023-05-08T03:45:56;16.90;;;12.15;;
53062;SDS011;40529;52.172;10.548;2023-05-08T03:48:22;14.93;;;11.68;;
53062;SDS011;40529;52.172;10.548;2023-05-08T03:50:49;14.35;;;11.18;;
53062;SDS011;40529;52.172;10.548;2023-05-08T03:53:15;17.60;;;12.25;;
53062;SDS011;40529;52.172;10.548;2023-05-08T03:55:41;15.18;;;11.52;;
53062;SDS011;40529;52.172;10.548;2023-05-08T03:58:19;15.73;;;12.27;;
53062;SDS011;40529;52.172;10.548;2023-05-08T04:05:49;14.85;;;11.75;;
53062;SDS011;40529;52.172;10.548;2023-05-08T04:08:24;15.07;;;11.63;;
53062;SDS011;40529;52.172;10.548;2023-05-08T04:13:49;15.23;;;11.23;;
53062;SDS011;40529;52.172;10.548;2023-05-08T04:16:20;14.38;;;11.32;;
53062;SDS011;40529;52.172;10.548;2023-05-08T04:18:49;13.98;;;11.48;;
53062;SDS011;40529;52.172;10.548;2023-05-08T04:21:17;13.52;;;11.07;;
53062;SDS011;40529;52.172;10.548;2023-05-08T04:23:44;16.65;;;12.50;;
53062;SDS011;40529;52.172;10.548;2023-05-08T04:26:11;14.57;;;11.68;;
53062;SDS011;40529;52.172;10.548;2023-05-08T04:28:38;15.77;;;12.05;;
53062;SDS011;40529;52.172;10.548;2023-05-08T04:31:05;14.18;;;11.40;;
53062;SDS011;40529;52.172;10.548;2023-05-08T04:33:32;16.40;;;11.77;;
53062;SDS011;40529;52.172;10.548;2023-05-08T04:36:02;15.55;;;11.48;;
53062;SDS011;40529;52.172;10.548;2023-05-08T04:38:28;14.18;;;11.55;;
53062;SDS011;40529;52.172;10.548;2023-05-08T04:40:54;13.13;;;10.80;;
53062;SDS011;40529;52.172;10.548;2023-05-08T04:43:20;15.43;;;12.05;;
53062;SDS011;40529;52.172;10.548;2023-05-08T04:45:46;16.08;;;11.27;;
53062;SDS011;40529;52.172;10.548;2023-05-08T04:48:12;16.58;;;11.88;;
53062;SDS011;40529;52.172;10.548;2023-05-08T04:50:38;13.80;;;11.07;;
53062;SDS011;40529;52.172;10.548;2023-05-08T04:53:05;16.33;;;11.93;;
53062;SDS011;40529;52.172;10.548;2023-05-08T04:55:31;13.15;;;10.60;;
53062;SDS011;40529;52.172;10.548;2023-05-08T04:57:57;14.35;;;10.57;;
53062;SDS011;40529;52.172;10.548;2023-05-08T05:00:23;13.18;;;11.07;;
53062;SDS011;40529;52.172;10.548;2023-05-08T05:02:49;13.45;;;10.82;;
53062;SDS011;40529;52.172;10.548;2023-05-08T05:05:15;12.98;;;11.00;;
53062;SDS011;40529;52.172;10.548;2023-05-08T05:07:41;16.17;;;10.68;;
53062;SDS011;40529;52.172;10.548;2023-05-08T05:10:07;12.40;;;10.23;;
53062;SDS011;40529;52.172;10.548;2023-05-08T05:12:33;13.90;;;10.57;;
53062;SDS011;40529;52.172;10.548;2023-05-08T05:14:59;13.88;;;10.50;;
53062;SDS011;40529;52.172;10.548;2023-05-08T05:17:25;13.95;;;10.75;;
53062;SDS011;40529;52.172;10.548;2023-05-08T05:19:51;13.98;;;10.93;;
53062;SDS011;40529;52.172;10.548;2023-05-08T05:22:17;13.32;;;10.70;;
53062;SDS011;40529;52.172;10.548;2023-05-08T05:24:43;12.88;;;9.73;;
53062;SDS011;40529;52.172;10.548;2023-05-08T05:27:10;12.10;;;10.07;;
53062;SDS011;40529;52.172;10.548;2023-05-08T05:29:36;13.45;;;10.25;;
53062;SDS011;40529;52.172;10.548;2023-05-08T05:32:02;14.02;;;10.40;;
53062;SDS011;40529;52.172;10.548;2023-05-08T05:34:28;13.70;;;10.80;;
53062;SDS011;40529;52.172;10.548;2023-05-08T05:36:54;15.50;;;11.50;;
53062;SDS011;40529;52.172;10.548;2023-05-08T05:39:20;13.57;;;10.82;;
53062;SDS011;40529;52.172;10.548;2023-05-08T05:41:46;13.48;;;10.38;;
53062;SDS011;40529;52.172;10.548;2023-05-08T05:44:12;14.05;;;10.38;;
53062;SDS011;40529;52.172;10.548;2023-05-08T05:46:38;11.90;;;9.60;;
53062;SDS011;40529;52.172;10.548;2023-05-08T05:49:04;13.93;;;10.10;;
53062;SDS011;40529;52.172;10.548;2023-05-08T05:51:30;16.48;;;10.48;;
53062;SDS011;40529;52.172;10.548;2023-05-08T05:53:56;13.75;;;10.20;;
53062;SDS011;40529;52.172;10.548;2023-05-08T05:56:22;12.90;;;9.82;;
53062;SDS011;40529;52.172;10.548;2023-05-08T05:58:48;13.50;;;9.52;;
53062;SDS011;40529;52.172;10.548;2023-05-08T06:01:14;13.95;;;10.38;;
53062;SDS011;40529;52.172;10.548;2023-05-08T06:03:40;16.75;;;10.32;;
53062;SDS011;40529;52.172;10.548;2023-05-08T06:06:06;14.32;;;10.52;;
53062;SDS011;40529;52.172;10.548;2023-05-08T06:08:32;13.20;;;10.07;;
53062;SDS011;40529;52.172;10.548;2023-05-08T06:10:58;12.77;;;10.52;;
53062;SDS011;40529;52.172;10.548;2023-05-08T06:13:24;15.25;;;9.85;;
53062;SDS011;40529;52.172;10.548;2023-05-08T06:15:52;11.05;;;9.65;;
53062;SDS011;40529;52.172;10.548;2023-05-08T06:18:20;12.93;;;10.30;;
53062;SDS011;40529;52.172;10.548;2023-05-08T06:20:46;13.52;;;9.93;;
53062;SDS011;40529;52.172;10.548;2023-05-08T06:23:12;12.10;;;10.30;;
53062;SDS011;40529;52.172;10.548;2023-05-08T06:25:38;14.52;;;9.88;;
53062;SDS011;40529;52.172;10.548;2023-05-08T06:28:04;17.50;;;11.05;;
53062;SDS011;40529;52.172;10.548;2023-05-08T06:30:32;12.77;;;9.77;;
53062;SDS011;40529;52.172;10.548;2023-05-08T06:32:58;14.90;;;10.63;;
53062;SDS011;40529;52.172;10.548;2023-05-08T06:35:24;13.73;;;10.63;;
53062;SDS011;40529;52.172;10.548;2023-05-08T06:37:50;12.35;;;9.88;;
53062;SDS011;40529;52.172;10.548;2023-05-08T06:40:16;12.57;;;10.18;;
53062;SDS011;40529;52.172;10.548;2023-05-08T06:42:42;13.45;;;9.75;;
53062;SDS011;40529;52.172;10.548;2023-05-08T06:45:08;13.57;;;10.15;;
53062;SDS011;40529;52.172;10.548;2023-05-08T06:47:34;12.77;;;10.18;;
53062;SDS011;40529;52.172;10.548;2023-05-08T06:50:00;14.13;;;10.00;;
53062;SDS011;40529;52.172;10.548;2023-05-08T06:52:26;12.18;;;10.10;;
53062;SDS011;40529;52.172;10.548;2023-05-08T06:54:52;16.13;;;10.48;;
53062;SDS011;40529;52.172;10.548;2023-05-08T06:57:18;13.05;;;10.70;;
53062;SDS011;40529;52.172;10.548;2023-05-08T06:59:44;13.48;;;10.02;;
53062;SDS011;40529;52.172;10.548;2023-05-08T07:02:10;12.90;;;10.20;;
53062;SDS011;40529;52.172;10.548;2023-05-08T07:04:36;13.43;;;10.25;;
53062;SDS011;40529;52.172;10.548;2023-05-08T07:07:02;14.32;;;10.05;;
53062;SDS011;40529;52.172;10.548;2023-05-08T07:09:30;14.07;;;10.25;;
53062;SDS011;40529;52.172;10.548;2023-05-08T07:11:56;12.73;;;10.20;;
53062;SDS011;40529;52.172;10.548;2023-05-08T07:14:22;13.73;;;10.82;;
53062;SDS011;40529;52.172;10.548;2023-05-08T07:16:48;12.27;;;10.40;;
53062;SDS011;40529;52.172;10.548;2023-05-08T07:19:14;12.43;;;9.88;;
53062;SDS011;40529;52.172;10.548;2023-05-08T07:21:41;13.02;;;10.00;;
53062;SDS011;40529;52.172;10.548;2023-05-08T07:24:07;12.63;;;10.38;;
53062;SDS011;40529;52.172;10.548;2023-05-08T07:26:33;11.35;;;10.07;;
53062;SDS011;40529;52.172;10.548;2023-05-08T07:28:59;12.13;;;10.60;;
53062;SDS011;40529;52.172;10.548;2023-05-08T07:31:25;11.75;;;9.90;;
53062;SDS011;40529;52.172;10.548;2023-05-08T07:33:51;14.07;;;10.07;;
53062;SDS011;40529;52.172;10.548;2023-05-08T07:36:17;12.27;;;10.02;;
53062;SDS011;40529;52.172;10.548;2023-05-08T07:38:43;15.80;;;11.80;;
53062;SDS011;40529;52.172;10.548;2023-05-08T07:41:09;12.55;;;10.23;;
53062;SDS011;40529;52.172;10.548;2023-05-08T07:43:35;12.05;;;10.73;;
53062;SDS011;40529;52.172;10.548;2023-05-08T07:46:01;13.10;;;10.15;;
53062;SDS011;40529;52.172;10.548;2023-05-08T07:48:28;14.10;;;9.75;;
53062;SDS011;40529;52.172;10.548;2023-05-08T07:50:54;12.15;;;9.80;;
53062;SDS011;40529;52.172;10.548;2023-05-08T07:53:20;12.98;;;10.43;;
53062;SDS011;40529;52.172;10.548;2023-05-08T07:55:46;11.75;;;10.05;;
53062;SDS011;40529;52.172;10.548;2023-05-08T07:58:12;12.57;;;9.90;;
53062;SDS011;40529;52.172;10.548;2023-05-08T08:00:38;11.68;;;9.73;;
53062;SDS011;40529;52.172;10.548;2023-05-08T08:03:04;12.65;;;10.32;;
53062;SDS011;40529;52.172;10.548;2023-05-08T08:05:31;10.98;;;9.73;;
53062;SDS011;40529;52.172;10.548;2023-05-08T08:07:57;10.13;;;9.00;;
53062;SDS011;40529;52.172;10.548;2023-05-08T08:10:23;15.20;;;10.80;;
53062;SDS011;40529;52.172;10.548;2023-05-08T08:12:49;13.27;;;10.90;;
53062;SDS011;40529;52.172;10.548;2023-05-08T08:15:15;11.70;;;10.27;;
53062;SDS011;40529;52.172;10.548;2023-05-08T08:17:41;12.70;;;10.15;;
53062;SDS011;40529;52.172;10.548;2023-05-08T08:20:07;13.27;;;9.68;;
53062;SDS011;40529;52.172;10.548;2023-05-08T08:22:33;14.48;;;9.88;;
53062;SDS011;40529;52.172;10.548;2023-05-08T08:25:00;13.75;;;9.20;;
53062;SDS011;40529;52.172;10.548;2023-05-08T08:27:26;12.50;;;9.68;;
53062;SDS011;40529;52.172;10.548;2023-05-08T08:29:52;11.82;;;9.25;;
53062;SDS011;40529;52.172;10.548;2023-05-08T08:32:18;10.07;;;8.88;;
53062;SDS011;40529;52.172;10.548;2023-05-08T08:34:44;12.48;;;9.77;;
53062;SDS011;40529;52.172;10.548;2023-05-08T08:37:10;16.45;;;9.43;;
53062;SDS011;40529;52.172;10.548;2023-05-08T08:39:36;11.95;;;9.77;;
53062;SDS011;40529;52.172;10.548;2023-05-08T08:42:02;11.32;;;9.77;;
53062;SDS011;40529;52.172;10.548;2023-05-08T08:44:28;10.23;;;9.02;;
53062;SDS011;40529;52.172;10.548;2023-05-08T08:46:55;10.50;;;9.10;;
53062;SDS011;40529;52.172;10.548;2023-05-08T08:49:23;12.25;;;9.55;;
53062;SDS011;40529;52.172;10.548;2023-05-08T08:51:51;11.30;;;9.18;;
53062;SDS011;40529;52.172;10.548;2023-05-08T08:54:22;12.70;;;9.95;;
53062;SDS011;40529;52.172;10.548;2023-05-08T08:56:49;11.65;;;9.35;;
53062;SDS011;40529;52.172;10.548;2023-05-08T08:59:16;11.18;;;9.13;;
53062;SDS011;40529;52.172;10.548;2023-05-08T09:01:46;11.60;;;9.05;;
53062;SDS011;40529;52.172;10.548;2023-05-08T09:04:13;12.43;;;9.60;;
53062;SDS011;40529;52.172;10.548;2023-05-08T09:06:38;13.82;;;9.65;;
53062;SDS011;40529;52.172;10.548;2023-05-08T09:09:09;9.90;;;8.90;;
53062;SDS011;40529;52.172;10.548;2023-05-08T09:11:37;14.18;;;9.25;;
53062;SDS011;40529;52.172;10.548;2023-05-08T09:14:03;11.23;;;9.50;;
53062;SDS011;40529;52.172;10.548;2023-05-08T09:16:29;15.05;;;9.52;;
53062;SDS011;40529;52.172;10.548;2023-05-08T09:18:55;12.60;;;10.13;;
53062;SDS011;40529;52.172;10.548;2023-05-08T09:21:21;13.18;;;9.88;;
53062;SDS011;40529;52.172;10.548;2023-05-08T09:26:27;10.90;;;9.30;;
53062;SDS011;40529;52.172;10.548;2023-05-08T09:31:39;18.02;;;11.25;;
53062;SDS011;40529;52.172;10.548;2023-05-08T09:34:06;11.73;;;9.82;;
53062;SDS011;40529;52.172;10.548;2023-05-08T09:36:32;11.52;;;8.95;;
53062;SDS011;40529;52.172;10.548;2023-05-08T09:38:59;13.50;;;9.25;;
53062;SDS011;40529;52.172;10.548;2023-05-08T09:41:25;10.80;;;9.00;;
53062;SDS011;40529;52.172;10.548;2023-05-08T09:44:04;19.13;;;11.15;;
53062;SDS011;40529;52.172;10.548;2023-05-08T09:46:31;8.10;;;6.78;;
53062;SDS011;40529;52.172;10.548;2023-05-08T09:49:01;10.27;;;9.07;;
53062;SDS011;40529;52.172;10.548;2023-05-08T09:51:29;12.25;;;9.13;;
53062;SDS011;40529;52.172;10.548;2023-05-08T09:53:56;11.32;;;8.90;;
53062;SDS011;40529;52.172;10.548;2023-05-08T09:56:33;10.60;;;8.93;;
53062;SDS011;40529;52.172;10.548;2023-05-08T09:58:59;12.95;;;9.30;;
53062;SDS011;40529;52.172;10.548;2023-05-08T10:01:30;10.55;;;8.68;;
53062;SDS011;40529;52.172;10.548;2023-05-08T10:03:56;12.30;;;8.48;;
53062;SDS011;40529;52.172;10.548;2023-05-08T10:06:22;10.00;;;8.90;;
53062;SDS011;40529;52.172;10.548;2023-05-08T10:09:04;14.00;;;9.40;;
53062;SDS011;40529;52.172;10.548;2023-05-08T10:11:30;8.73;;;7.82;;
53062;SDS011;40529;52.172;10.548;2023-05-08T10:13:56;13.73;;;8.90;;
53062;SDS011;40529;52.172;10.548;2023-05-08T10:16:23;8.95;;;8.02;;
53062;SDS011;40529;52.172;10.548;2023-05-08T10:18:50;10.48;;;9.05;;
53062;SDS011;40529;52.172;10.548;2023-05-08T10:21:21;10.30;;;9.23;;
53062;SDS011;40529;52.172;10.548;2023-05-08T10:23:48;11.88;;;8.82;;
53062;SDS011;40529;52.172;10.548;2023-05-08T10:26:24;12.50;;;9.18;;
53062;SDS011;40529;52.172;10.548;2023-05-08T10:28:57;11.23;;;9.00;;
53062;SDS011;40529;52.172;10.548;2023-05-08T10:31:30;12.02;;;9.85;;
53062;SDS011;40529;52.172;10.548;2023-05-08T10:33:58;10.50;;;8.90;;
53062;SDS011;40529;52.172;10.548;2023-05-08T10:36:27;13.90;;;8.75;;
53062;SDS011;40529;52.172;10.548;2023-05-08T10:38:53;9.88;;;8.35;;
53062;SDS011;40529;52.172;10.548;2023-05-08T10:41:19;9.82;;;8.65;;
53062;SDS011;40529;52.172;10.548;2023-05-08T10:43:47;11.30;;;9.25;;
53062;SDS011;40529;52.172;10.548;2023-05-08T10:51:40;9.52;;;8.30;;
53062;SDS011;40529;52.172;10.548;2023-05-08T10:54:20;10.55;;;7.53;;
53062;SDS011;40529;52.172;10.548;2023-05-08T10:56:50;13.05;;;8.50;;
53062;SDS011;40529;52.172;10.548;2023-05-08T10:59:19;8.13;;;6.50;;
53062;SDS011;40529;52.172;10.548;2023-05-08T11:01:48;8.82;;;7.65;;
53062;SDS011;40529;52.172;10.548;2023-05-08T11:04:21;9.48;;;7.72;;
53062;SDS011;40529;52.172;10.548;2023-05-08T11:06:48;10.30;;;6.78;;
53062;SDS011;40529;52.172;10.548;2023-05-08T11:09:20;7.32;;;6.22;;
53062;SDS011;40529;52.172;10.548;2023-05-08T11:11:50;8.38;;;6.72;;
53062;SDS011;40529;52.172;10.548;2023-05-08T11:14:17;8.55;;;6.50;;
53062;SDS011;40529;52.172;10.548;2023-05-08T11:19:21;7.03;;;6.05;;
53062;SDS011;40529;52.172;10.548;2023-05-08T11:24:35;7.60;;;6.30;;
53062;SDS011;40529;52.172;10.548;2023-05-08T11:27:01;13.02;;;6.60;;
53062;SDS011;40529;52.172;10.548;2023-05-08T11:29:27;9.75;;;6.80;;
53062;SDS011;40529;52.172;10.548;2023-05-08T11:31:53;7.13;;;6.22;;
53062;SDS011;40529;52.172;10.548;2023-05-08T11:37:07;6.60;;;5.88;;
53062;SDS011;40529;52.172;10.548;2023-05-08T11:39:33;8.52;;;6.32;;
53062;SDS011;40529;52.172;10.548;2023-05-08T11:44:44;8.85;;;6.50;;
53062;SDS011;40529;52.172;10.548;2023-05-08T11:47:10;7.63;;;5.82;;
53062;SDS011;40529;52.172;10.548;2023-05-08T11:49:43;10.43;;;5.85;;
53062;SDS011;40529;52.172;10.548;2023-05-08T11:52:09;6.15;;;5.55;;
53062;SDS011;40529;52.172;10.548;2023-05-08T11:54:35;7.28;;;5.97;;
53062;SDS011;40529;52.172;10.548;2023-05-08T11:57:01;6.80;;;6.03;;
53062;SDS011;40529;52.172;10.548;2023-05-08T11:59:27;6.95;;;6.05;;
53062;SDS011;40529;52.172;10.548;2023-05-08T12:01:53;6.32;;;5.70;;
53062;SDS011;40529;52.172;10.548;2023-05-08T12:04:19;9.45;;;5.55;;
53062;SDS011;40529;52.172;10.548;2023-05-08T12:06:45;5.90;;;5.30;;
53062;SDS011;40529;52.172;10.548;2023-05-08T12:09:13;6.00;;;5.43;;
53062;SDS011;40529;52.172;10.548;2023-05-08T12:11:39;5.85;;;4.95;;
53062;SDS011;40529;52.172;10.548;2023-05-08T12:14:07;10.25;;;5.18;;
53062;SDS011;40529;52.172;10.548;2023-05-08T12:16:34;9.40;;;5.22;;
53062;SDS011;40529;52.172;10.548;2023-05-08T12:19:01;6.53;;;5.30;;
53062;SDS011;40529;52.172;10.548;2023-05-08T12:21:27;6.68;;;4.80;;
53062;SDS011;40529;52.172;10.548;2023-05-08T12:23:53;5.32;;;4.35;;
53062;SDS011;40529;52.172;10.548;2023-05-08T12:26:20;6.85;;;4.70;;
53062;SDS011;40529;52.172;10.548;2023-05-08T12:28:46;7.25;;;5.40;;
53062;SDS011;40529;52.172;10.548;2023-05-08T12:31:18;6.90;;;4.97;;
53062;SDS011;40529;52.172;10.548;2023-05-08T12:33:44;7.00;;;5.38;;
53062;SDS011;40529;52.172;10.548;2023-05-08T12:36:11;6.28;;;4.70;;
53062;SDS011;40529;52.172;10.548;2023-05-08T12:38:37;5.93;;;4.20;;
53062;SDS011;40529;52.172;10.548;2023-05-08T12:41:03;6.13;;;4.15;;
53062;SDS011;40529;52.172;10.548;2023-05-08T12:43:31;8.63;;;5.70;;
53062;SDS011;40529;52.172;10.548;2023-05-08T12:45:57;5.97;;;4.60;;
53062;SDS011;40529;52.172;10.548;2023-05-08T12:48:23;8.25;;;4.70;;
53062;SDS011;40529;52.172;10.548;2023-05-08T12:50:49;5.22;;;4.72;;
53062;SDS011;40529;52.172;10.548;2023-05-08T12:53:16;6.53;;;5.00;;
53062;SDS011;40529;52.172;10.548;2023-05-08T12:55:56;6.93;;;4.75;;
53062;SDS011;40529;52.172;10.548;2023-05-08T12:58:26;6.63;;;4.50;;
53062;SDS011;40529;52.172;10.548;2023-05-08T13:00:53;5.10;;;4.65;;
53062;SDS011;40529;52.172;10.548;2023-05-08T13:03:28;5.47;;;4.63;;
53062;SDS011;40529;52.172;10.548;2023-05-08T13:05:55;6.18;;;4.68;;
53062;SDS011;40529;52.172;10.548;2023-05-08T13:08:31;7.35;;;5.10;;
53062;SDS011;40529;52.172;10.548;2023-05-08T13:10:57;6.28;;;4.65;;
53062;SDS011;40529;52.172;10.548;2023-05-08T13:13:24;5.55;;;4.43;;
53062;SDS011;40529;52.172;10.548;2023-05-08T13:15:51;8.10;;;4.32;;
53062;SDS011;40529;52.172;10.548;2023-05-08T13:18:17;7.28;;;4.40;;
53062;SDS011;40529;52.172;10.548;2023-05-08T13:20:44;5.43;;;4.72;;
53062;SDS011;40529;52.172;10.548;2023-05-08T13:23:10;6.43;;;4.10;;
53062;SDS011;40529;52.172;10.548;2023-05-08T13:25:37;6.53;;;4.40;;
53062;SDS011;40529;52.172;10.548;2023-05-08T13:28:03;5.90;;;4.90;;
53062;SDS011;40529;52.172;10.548;2023-05-08T13:30:29;5.70;;;4.40;;
53062;SDS011;40529;52.172;10.548;2023-05-08T13:32:56;4.65;;;3.95;;
53062;SDS011;40529;52.172;10.548;2023-05-08T13:35:22;4.38;;;3.97;;
53062;SDS011;40529;52.172;10.548;2023-05-08T13:37:48;4.35;;;3.95;;
53062;SDS011;40529;52.172;10.548;2023-05-08T13:40:15;5.88;;;4.65;;
53062;SDS011;40529;52.172;10.548;2023-05-08T13:42:41;7.13;;;3.90;;
53062;SDS011;40529;52.172;10.548;2023-05-08T13:45:07;7.20;;;4.07;;
53062;SDS011;40529;52.172;10.548;2023-05-08T13:47:40;5.43;;;3.88;;
53062;SDS011;40529;52.172;10.548;2023-05-08T13:50:10;4.72;;;3.53;;
53062;SDS011;40529;52.172;10.548;2023-05-08T13:52:37;4.10;;;3.70;;
53062;SDS011;40529;52.172;10.548;2023-05-08T13:55:09;5.63;;;3.38;;
53062;SDS011;40529;52.172;10.548;2023-05-08T13:57:35;4.43;;;3.75;;
53062;SDS011;40529;52.172;10.548;2023-05-08T14:00:02;7.97;;;3.78;;
53062;SDS011;40529;52.172;10.548;2023-05-08T14:02:28;9.25;;;3.95;;
53062;SDS011;40529;52.172;10.548;2023-05-08T14:04:54;6.53;;;4.10;;
53062;SDS011;40529;52.172;10.548;2023-05-08T14:07:20;4.70;;;3.97;;
53062;SDS011;40529;52.172;10.548;2023-05-08T14:09:46;6.53;;;4.05;;
53062;SDS011;40529;52.172;10.548;2023-05-08T14:12:13;5.53;;;3.88;;
53062;SDS011;40529;52.172;10.548;2023-05-08T14:14:39;4.40;;;3.50;;
53062;SDS011;40529;52.172;10.548;2023-05-08T14:17:05;6.03;;;3.50;;
53062;SDS011;40529;52.172;10.548;2023-05-08T14:19:32;5.68;;;3.95;;
53062;SDS011;40529;52.172;10.548;2023-05-08T14:21:58;4.38;;;3.53;;
53062;SDS011;40529;52.172;10.548;2023-05-08T14:24:24;4.50;;;3.55;;
53062;SDS011;40529;52.172;10.548;2023-05-08T14:26:50;6.45;;;3.30;;
53062;SDS011;40529;52.172;10.548;2023-05-08T14:29:16;6.80;;;3.70;;
53062;SDS011;40529;52.172;10.548;2023-05-08T14:31:43;6.50;;;4.10;;
53062;SDS011;40529;52.172;10.548;2023-05-08T14:34:09;6.07;;;3.63;;
53062;SDS011;40529;52.172;10.548;2023-05-08T14:36:35;5.35;;;3.30;;
53062;SDS011;40529;52.172;10.548;2023-05-08T14:39:01;4.53;;;2.70;;
53062;SDS011;40529;52.172;10.548;2023-05-08T14:41:27;3.53;;;2.80;;
53062;SDS011;40529;52.172;10.548;2023-05-08T14:43:53;5.53;;;3.47;;
53062;SDS011;40529;52.172;10.548;2023-05-08T14:46:20;5.55;;;3.47;;
53062;SDS011;40529;52.172;10.548;2023-05-08T14:48:46;4.30;;;3.50;;
53062;SDS011;40529;52.172;10.548;2023-05-08T14:51:12;6.93;;;3.30;;
53062;SDS011;40529;52.172;10.548;2023-05-08T14:53:38;3.45;;;2.75;;
53062;SDS011;40529;52.172;10.548;2023-05-08T14:56:05;5.43;;;3.33;;
53062;SDS011;40529;52.172;10.548;2023-05-08T14:58:31;5.93;;;3.22;;
53062;SDS011;40529;52.172;10.548;2023-05-08T15:00:57;5.82;;;3.05;;
53062;SDS011;40529;52.172;10.548;2023-05-08T15:03:23;3.70;;;3.00;;
53062;SDS011;40529;52.172;10.548;2023-05-08T15:05:49;3.80;;;3.10;;
53062;SDS011;40529;52.172;10.548;2023-05-08T15:08:15;3.53;;;2.97;;
53062;SDS011;40529;52.172;10.548;2023-05-08T15:10:41;4.05;;;3.03;;